Main page
METAR-TAF:

METAR-TAF

Airports :

Vigo–Peinador Airport

Vigo, Spain

latitude: 42-13N, longitude: 008-38W, elevation: 264 m

Current weather observation

The report was made 11 minutes ago, at 15:30 UTC
Wind 11 kt from the West, varying between Southwest and West/Northwest
Temperature 15°C
Humidity 51%
Pressure 1017 hPa
Visibility 10 km or more
no clouds below 1500 m and no cumulonimbus

METAR: LEVX 281530Z 26011KT 230V290 CAVOK 15/05 Q1017 NOSIG

Time: 16:41 (15:41 UTC)

Forecast

The report was made 4 hours and 41 minutes ago, at 11:00 UTC
Forecast valid from 28 at 12 UTC to 29 at 12 UTC
Wind 8 kt from the South
Visibility 10 km or more
no clouds below 1500 m and no cumulonimbus
Probability 40% :
Temporary
from 28 at 12 UTC to 28 at 19 UTC
Wind 10 kt from the West

TAF: LEVX 281100Z 2812/2912 18008KT CAVOK TX17/2813Z TN06/2906Z PROB40 TEMPO 2812/2819 28010KT

Weather observations and forecasts of more than 4000 airports (METAR and TAF reports).

The available stations are represented by yellow and red dots on the map.

Hover mouse over dot to see the name of the station.

Then click to see weather observations and forecasts.

To change the map : click on the green buttons with a black cross to zoom in, on the green button with a dash to zoom out, or on the green arrows for adjacent maps.


METAR-TAF: